createdAt,value
2018-06-21T00:01:36.504Z,14.00
2018-06-21T00:04:04.547Z,12.87
2018-06-21T00:06:32.545Z,12.37
2018-06-21T00:09:00.568Z,14.43
2018-06-21T00:11:28.585Z,12.53
2018-06-21T00:13:56.620Z,11.33
2018-06-21T00:16:24.694Z,12.87
2018-06-21T00:18:52.697Z,13.40
2018-06-21T00:21:20.689Z,13.87
2018-06-21T00:23:48.676Z,14.50
2018-06-21T00:26:16.657Z,13.33
2018-06-21T00:28:44.721Z,15.80
2018-06-21T00:31:12.742Z,14.20
2018-06-21T00:33:40.834Z,14.87
2018-06-21T00:36:08.863Z,14.83
2018-06-21T00:38:36.853Z,12.90
2018-06-21T00:41:04.868Z,19.13
2018-06-21T00:43:32.908Z,19.33
2018-06-21T00:46:01.733Z,22.70
2018-06-21T00:48:29.733Z,19.60
2018-06-21T00:50:57.769Z,15.97
2018-06-21T00:53:25.809Z,14.27
2018-06-21T00:56:05.293Z,17.27
2018-06-21T00:58:33.296Z,18.73
2018-06-21T01:01:01.304Z,17.50
2018-06-21T01:03:29.301Z,16.23
2018-06-21T01:05:57.325Z,16.90
2018-06-21T01:08:25.338Z,15.43
2018-06-21T01:10:53.356Z,24.13
2018-06-21T01:13:21.368Z,41.70
2018-06-21T01:15:49.384Z,36.53
2018-06-21T01:18:17.889Z,38.57
2018-06-21T01:20:45.881Z,35.43
2018-06-21T01:23:13.890Z,27.10
2018-06-21T01:25:42.017Z,31.03
2018-06-21T01:28:10.014Z,21.87
2018-06-21T01:30:38.022Z,19.70
2018-06-21T01:33:06.050Z,18.97
2018-06-21T01:35:34.090Z,14.97
2018-06-21T01:38:02.084Z,21.10
2018-06-21T01:40:30.089Z,15.30
2018-06-21T01:42:58.116Z,17.40
2018-06-21T01:45:26.225Z,15.83
2018-06-21T01:47:54.231Z,16.33
2018-06-21T01:50:22.247Z,24.07
2018-06-21T01:52:50.276Z,16.00
2018-06-21T01:55:18.308Z,30.13
2018-06-21T01:57:46.304Z,25.70
2018-06-21T02:00:14.341Z,23.20
2018-06-21T02:02:42.908Z,21.63
2018-06-21T02:05:10.969Z,22.10
2018-06-21T02:07:39.183Z,20.03
2018-06-21T02:10:07.444Z,23.60
2018-06-21T02:12:35.486Z,24.33
2018-06-21T02:15:03.502Z,21.37
2018-06-21T02:17:31.531Z,22.60
2018-06-21T02:19:59.572Z,22.87
2018-06-21T02:22:27.580Z,23.03
2018-06-21T02:24:55.638Z,22.50
2018-06-21T02:27:23.633Z,23.17
2018-06-21T02:29:51.613Z,23.03
2018-06-21T02:32:19.667Z,24.27
2018-06-21T02:34:47.808Z,25.43
2018-06-21T02:37:15.869Z,31.80
2018-06-21T02:39:43.849Z,25.73
2018-06-21T02:42:11.856Z,29.10
2018-06-21T02:44:40.005Z,26.60
2018-06-21T02:47:08.029Z,28.93
2018-06-21T02:49:36.044Z,27.43
2018-06-21T02:52:05.012Z,27.30
2018-06-21T02:54:33.122Z,26.67
2018-06-21T02:57:01.122Z,31.90
2018-06-21T02:59:29.141Z,25.17
2018-06-21T03:01:57.148Z,31.40
2018-06-21T03:04:25.140Z,27.90
2018-06-21T03:06:53.133Z,32.70
2018-06-21T03:09:21.150Z,29.90
2018-06-21T03:11:49.145Z,32.57
2018-06-21T03:14:17.168Z,28.47
2018-06-21T03:16:45.202Z,33.57
2018-06-21T03:19:13.209Z,32.17
2018-06-21T03:21:41.216Z,29.70
2018-06-21T03:24:10.250Z,25.83
2018-06-21T03:26:38.240Z,34.70
2018-06-21T03:29:06.233Z,28.63
2018-06-21T03:31:34.247Z,31.73
2018-06-21T03:34:02.225Z,33.40
2018-06-21T03:36:30.231Z,33.70
2018-06-21T03:38:58.259Z,31.47
2018-06-21T03:41:26.260Z,31.43
2018-06-21T03:43:54.273Z,36.00
2018-06-21T03:46:22.270Z,39.80
2018-06-21T03:48:50.344Z,31.73
2018-06-21T03:51:18.333Z,25.70
2018-06-21T03:53:46.347Z,32.00
2018-06-21T03:56:14.313Z,22.77
2018-06-21T03:58:42.332Z,29.23
2018-06-21T04:03:30.054Z,26.23
2018-06-21T04:05:58.029Z,28.87
2018-06-21T04:08:26.095Z,31.83
2018-06-21T04:10:54.022Z,31.27
2018-06-21T04:13:22.132Z,27.83
2018-06-21T04:15:50.127Z,26.17
2018-06-21T04:18:22.410Z,29.60
2018-06-21T04:20:50.577Z,27.10
2018-06-21T04:23:18.668Z,28.20
2018-06-21T04:25:46.726Z,26.93
2018-06-21T04:28:14.782Z,33.47
2018-06-21T04:30:42.776Z,29.67
2018-06-21T04:33:10.775Z,27.43
2018-06-21T04:35:38.773Z,30.93
2018-06-21T04:38:06.825Z,24.70
2018-06-21T04:40:34.877Z,29.30
2018-06-21T04:43:02.906Z,29.03
2018-06-21T04:45:31.001Z,25.67
2018-06-21T04:47:59.012Z,26.20
2018-06-21T04:50:27.029Z,28.30
2018-06-21T04:52:55.144Z,31.70
2018-06-21T04:55:23.197Z,34.43
2018-06-21T04:57:51.193Z,31.30
2018-06-21T05:00:19.457Z,33.73
2018-06-21T05:02:47.652Z,32.47
2018-06-21T05:05:15.673Z,32.40
2018-06-21T05:07:43.718Z,55.43
2018-06-21T05:10:11.804Z,45.57
2018-06-21T05:12:39.963Z,42.73
2018-06-21T05:15:07.955Z,39.20
2018-06-21T05:17:35.985Z,44.43
2018-06-21T05:20:04.009Z,44.43
2018-06-21T05:22:32.166Z,27.07
2018-06-21T05:25:00.177Z,29.73
2018-06-21T05:27:28.177Z,29.40
2018-06-21T05:29:56.188Z,40.43
2018-06-21T05:32:24.356Z,27.87
2018-06-21T05:34:52.368Z,50.50
2018-06-21T05:37:20.411Z,37.63
2018-06-21T05:39:48.368Z,40.17
2018-06-21T05:42:16.391Z,36.50
2018-06-21T05:44:44.420Z,54.77
2018-06-21T05:47:12.760Z,44.73
2018-06-21T05:49:40.758Z,42.77
2018-06-21T05:52:08.737Z,25.30
2018-06-21T05:54:37.851Z,16.53
2018-06-21T05:57:05.824Z,8.00
2018-06-21T05:59:33.870Z,4.53
2018-06-21T06:02:01.901Z,3.73
2018-06-21T06:04:29.856Z,2.70
2018-06-21T06:06:57.961Z,3.23
2018-06-21T06:09:25.956Z,3.00
2018-06-21T06:11:54.150Z,3.00
2018-06-21T06:14:22.168Z,2.60
2018-06-21T06:16:50.193Z,2.80
2018-06-21T06:19:18.444Z,2.17
2018-06-21T06:21:46.446Z,5.23
2018-06-21T06:24:14.490Z,2.13
2018-06-21T06:26:42.676Z,4.53
2018-06-21T06:29:10.756Z,1.97
2018-06-21T06:31:39.369Z,2.70
2018-06-21T06:34:07.442Z,3.37
2018-06-21T06:36:35.476Z,2.00
2018-06-21T06:39:21.109Z,3.57
2018-06-21T06:41:50.164Z,4.07
2018-06-21T06:44:18.761Z,1.70
2018-06-21T06:46:46.801Z,6.63
2018-06-21T06:49:14.773Z,4.00
2018-06-21T06:51:42.772Z,4.53
2018-06-21T06:54:11.660Z,2.27
2018-06-21T06:56:39.849Z,6.67
2018-06-21T06:59:07.845Z,3.13
2018-06-21T07:01:35.846Z,13.73
2018-06-21T07:04:03.929Z,9.87
2018-06-21T07:06:31.908Z,3.30
2018-06-21T07:08:59.884Z,4.20
2018-06-21T07:11:28.792Z,4.23
2018-06-21T07:13:57.757Z,9.90
2018-06-21T07:16:26.181Z,4.43
2018-06-21T07:18:54.179Z,6.70
2018-06-21T07:21:22.276Z,4.47
2018-06-21T07:23:50.441Z,3.50
2018-06-21T07:26:18.457Z,2.90
2018-06-21T07:28:46.582Z,4.20
2018-06-21T07:31:14.600Z,13.43
2018-06-21T07:33:42.584Z,7.40
2018-06-21T07:36:10.621Z,7.97
2018-06-21T07:38:38.650Z,6.40
2018-06-21T07:41:06.702Z,7.90
2018-06-21T07:43:34.698Z,5.03
2018-06-21T07:46:02.729Z,16.03
2018-06-21T07:48:30.724Z,8.27
2018-06-21T07:50:58.744Z,18.70
2018-06-21T07:53:26.833Z,20.60
2018-06-21T07:55:54.821Z,10.80
2018-06-21T07:58:22.857Z,10.73
2018-06-21T08:00:50.844Z,9.73
2018-06-21T08:03:18.845Z,10.37
2018-06-21T08:05:46.849Z,10.20
2018-06-21T08:08:14.887Z,3.80
2018-06-21T08:10:42.907Z,11.47
2018-06-21T08:13:11.048Z,7.00
2018-06-21T08:15:39.040Z,12.70
2018-06-21T08:18:07.076Z,6.00
2018-06-21T08:20:35.101Z,9.33
2018-06-21T08:23:03.572Z,14.03
2018-06-21T08:25:31.544Z,9.33
2018-06-21T08:27:59.648Z,10.50
2018-06-21T08:30:27.769Z,6.87
2018-06-21T08:32:55.789Z,7.10
2018-06-21T08:35:23.817Z,10.03
2018-06-21T08:37:51.841Z,10.60
2018-06-21T08:40:19.841Z,15.10
2018-06-21T08:42:47.857Z,11.10
2018-06-21T08:45:15.844Z,17.10
2018-06-21T08:47:43.829Z,6.40
2018-06-21T08:50:11.988Z,9.63
2018-06-21T08:52:39.997Z,16.13
2018-06-21T08:55:08.025Z,7.90
2018-06-21T08:57:36.016Z,6.20
2018-06-21T09:00:04.513Z,6.53
2018-06-21T09:02:33.803Z,7.30
2018-06-21T09:05:01.834Z,8.70
2018-06-21T09:07:29.826Z,6.23
2018-06-21T09:09:57.813Z,7.23
2018-06-21T09:12:30.022Z,8.80
2018-06-21T09:14:59.088Z,3.50
2018-06-21T09:17:27.116Z,7.97
2018-06-21T09:19:55.192Z,5.00
2018-06-21T09:22:23.213Z,8.00
2018-06-21T09:24:51.270Z,3.93
2018-06-21T09:27:19.317Z,5.53
2018-06-21T09:29:47.720Z,5.00
2018-06-21T09:32:15.973Z,6.17
2018-06-21T09:34:43.977Z,6.30
2018-06-21T09:37:11.992Z,6.33
2018-06-21T09:39:45.395Z,7.33
2018-06-21T09:42:18.857Z,11.43
2018-06-21T09:44:52.381Z,3.23
2018-06-21T09:47:25.790Z,9.20
2018-06-21T09:49:53.812Z,4.37
2018-06-21T09:52:21.823Z,8.23
2018-06-21T09:54:49.956Z,5.23
2018-06-21T09:57:18.012Z,8.13
2018-06-21T09:59:46.033Z,9.60
2018-06-21T10:02:14.033Z,8.87
2018-06-21T10:04:42.050Z,8.33
2018-06-21T10:07:10.176Z,9.40
2018-06-21T10:09:38.261Z,5.67
2018-06-21T10:12:06.677Z,5.70
2018-06-21T10:14:34.681Z,10.90
2018-06-21T10:17:02.844Z,8.20
2018-06-21T10:19:30.905Z,9.20
2018-06-21T10:21:58.916Z,8.10
2018-06-21T10:24:26.912Z,5.60
2018-06-21T10:26:54.904Z,11.07
2018-06-21T10:29:22.920Z,4.57
2018-06-21T10:31:50.906Z,5.30
2018-06-21T10:34:18.919Z,3.40
2018-06-21T10:36:46.929Z,4.40
2018-06-21T10:39:14.937Z,12.53
2018-06-21T10:41:42.948Z,9.10
2018-06-21T10:44:11.886Z,3.77
2018-06-21T10:46:39.867Z,4.67
2018-06-21T10:49:07.906Z,7.60
2018-06-21T10:51:36.016Z,3.70
2018-06-21T10:54:04.253Z,5.20
2018-06-21T10:56:32.516Z,6.23
2018-06-21T10:59:00.519Z,5.53
2018-06-21T11:01:28.822Z,6.47
2018-06-21T11:03:56.805Z,3.47
2018-06-21T11:06:25.285Z,5.50
2018-06-21T11:08:53.284Z,10.57
2018-06-21T11:11:21.272Z,4.63
2018-06-21T11:13:49.301Z,8.10
2018-06-21T11:16:17.269Z,4.73
2018-06-21T11:18:45.277Z,4.97
2018-06-21T11:21:13.269Z,2.40
2018-06-21T11:23:41.261Z,4.57
2018-06-21T11:26:09.260Z,6.33
2018-06-21T11:28:37.340Z,3.83
2018-06-21T11:31:05.307Z,6.10
2018-06-21T11:33:33.308Z,3.03
2018-06-21T11:36:01.305Z,5.73
2018-06-21T11:38:29.340Z,5.30
2018-06-21T11:40:58.347Z,3.40
2018-06-21T11:43:26.340Z,4.43
2018-06-21T11:45:54.333Z,5.77
2018-06-21T11:48:22.369Z,5.27
2018-06-21T11:50:50.365Z,4.90
2018-06-21T11:53:18.402Z,8.30
2018-06-21T11:55:46.393Z,6.10
2018-06-21T11:58:14.418Z,7.50
2018-06-21T12:00:42.436Z,11.63
2018-06-21T12:03:10.434Z,3.63
2018-06-21T12:05:38.460Z,8.10
2018-06-21T12:08:06.465Z,3.70
2018-06-21T12:10:34.464Z,3.67
2018-06-21T12:13:02.492Z,3.40
2018-06-21T12:15:30.556Z,6.20
2018-06-21T12:17:58.548Z,9.33
2018-06-21T12:20:26.550Z,9.83
2018-06-21T12:22:54.673Z,4.53
2018-06-21T12:25:22.676Z,4.87
2018-06-21T12:27:50.853Z,5.07
2018-06-21T12:30:18.893Z,5.80
2018-06-21T12:32:46.884Z,6.70
2018-06-21T12:35:14.925Z,8.23
2018-06-21T12:37:42.942Z,12.50
2018-06-21T12:40:10.948Z,9.63
2018-06-21T12:42:39.044Z,9.57
2018-06-21T12:45:07.033Z,5.23
2018-06-21T12:47:35.026Z,9.60
2018-06-21T12:50:03.061Z,4.70
2018-06-21T12:52:31.200Z,4.70
2018-06-21T12:54:59.213Z,7.70
2018-06-21T12:57:27.255Z,8.13
2018-06-21T12:59:55.309Z,2.50
2018-06-21T13:02:23.301Z,2.20
2018-06-21T13:04:51.305Z,1.80
2018-06-21T13:07:19.369Z,4.93
2018-06-21T13:09:58.953Z,1.93
2018-06-21T13:12:39.473Z,3.00
2018-06-21T13:15:07.596Z,2.90
2018-06-21T13:17:35.635Z,3.03
2018-06-21T13:20:04.825Z,9.73
2018-06-21T13:22:32.820Z,5.03
2018-06-21T13:25:00.809Z,1.03
2018-06-21T13:27:28.820Z,8.27
2018-06-21T13:29:56.995Z,7.67
2018-06-21T13:32:24.986Z,6.00
2018-06-21T13:34:53.073Z,2.20
2018-06-21T13:37:21.033Z,6.37
2018-06-21T13:39:49.032Z,5.50
2018-06-21T13:42:17.034Z,2.50
2018-06-21T13:44:45.139Z,2.80
2018-06-21T13:47:13.124Z,2.27
2018-06-21T13:49:41.252Z,1.60
2018-06-21T13:52:09.252Z,4.13
2018-06-21T13:54:37.284Z,4.40
2018-06-21T13:57:05.361Z,1.40
2018-06-21T13:59:33.384Z,4.30
2018-06-21T14:02:01.417Z,1.90
2018-06-21T14:04:29.434Z,9.03
2018-06-21T14:06:57.464Z,1.93
2018-06-21T14:09:25.496Z,4.10
2018-06-21T14:11:53.589Z,4.57
2018-06-21T14:14:21.609Z,3.17
2018-06-21T14:16:49.724Z,2.63
2018-06-21T14:19:17.725Z,2.03
2018-06-21T14:21:45.750Z,0.80
2018-06-21T14:24:15.032Z,3.87
2018-06-21T14:26:43.453Z,4.60
2018-06-21T14:29:11.465Z,1.53
2018-06-21T14:31:39.470Z,3.43
2018-06-21T14:34:07.444Z,2.10
2018-06-21T14:36:35.541Z,8.90
2018-06-21T14:39:04.762Z,3.17
2018-06-21T14:41:32.778Z,3.87
2018-06-21T14:44:01.286Z,4.77
2018-06-21T14:46:29.281Z,3.17
2018-06-21T14:48:57.350Z,3.03
2018-06-21T14:51:25.345Z,4.47
2018-06-21T14:53:53.590Z,1.83
2018-06-21T14:56:21.593Z,2.40
2018-06-21T14:58:49.569Z,2.03
2018-06-21T15:01:17.631Z,3.27
2018-06-21T15:03:45.657Z,4.10
2018-06-21T15:06:13.692Z,1.30
2018-06-21T15:08:41.760Z,3.13
2018-06-21T15:11:09.822Z,1.90
2018-06-21T15:13:37.785Z,4.60
2018-06-21T15:16:05.782Z,1.30
2018-06-21T15:18:34.936Z,1.80
2018-06-21T15:21:02.969Z,2.40
2018-06-21T15:23:30.947Z,1.17
2018-06-21T15:25:59.188Z,0.80
2018-06-21T15:28:27.173Z,1.53
2018-06-21T15:30:55.157Z,0.80
2018-06-21T15:33:23.157Z,0.70
2018-06-21T15:35:51.261Z,8.20
2018-06-21T15:38:19.993Z,1.03
2018-06-21T15:40:48.025Z,0.73
2018-06-21T15:43:16.109Z,2.20
2018-06-21T15:45:44.097Z,2.57
2018-06-21T15:48:12.100Z,6.10
2018-06-21T15:50:40.096Z,2.97
2018-06-21T15:53:08.138Z,3.47
2018-06-21T15:55:36.159Z,6.23
2018-06-21T15:58:04.301Z,3.60
2018-06-21T16:00:32.376Z,1.13
2018-06-21T16:03:00.540Z,2.67
2018-06-21T16:05:28.562Z,7.80
2018-06-21T16:07:56.568Z,7.17
2018-06-21T16:10:24.804Z,1.07
2018-06-21T16:12:52.846Z,1.90
2018-06-21T16:15:20.949Z,1.77
2018-06-21T16:17:48.900Z,4.03
2018-06-21T16:20:16.888Z,3.80
2018-06-21T16:22:44.905Z,1.47
2018-06-21T16:25:12.924Z,4.13
2018-06-21T16:27:41.104Z,1.73
2018-06-21T16:30:09.097Z,3.70
2018-06-21T16:32:37.096Z,2.30
2018-06-21T16:35:05.085Z,3.07
2018-06-21T16:37:33.099Z,9.60
2018-06-21T16:40:01.816Z,1.43
2018-06-21T16:42:29.947Z,3.10
2018-06-21T16:44:57.929Z,6.10
2018-06-21T16:47:25.937Z,2.30
2018-06-21T16:49:53.951Z,2.40
2018-06-21T16:52:21.944Z,1.67
2018-06-21T16:54:50.064Z,3.07
2018-06-21T16:57:18.037Z,9.07
2018-06-21T16:59:46.082Z,3.40
2018-06-21T17:02:14.159Z,2.53
2018-06-21T17:04:42.168Z,4.50
2018-06-21T17:07:10.177Z,6.37
2018-06-21T17:09:38.285Z,4.20
2018-06-21T17:12:06.293Z,7.77
2018-06-21T17:14:34.308Z,2.80
2018-06-21T17:17:02.367Z,4.80
2018-06-21T17:19:30.419Z,4.13
2018-06-21T17:21:58.413Z,4.17
2018-06-21T17:24:26.702Z,5.07
2018-06-21T17:26:54.712Z,2.67
2018-06-21T17:29:22.793Z,6.37
2018-06-21T17:31:50.812Z,1.93
2018-06-21T17:34:19.226Z,4.00
2018-06-21T17:36:47.307Z,4.27
2018-06-21T17:39:15.368Z,2.70
2018-06-21T17:41:43.408Z,4.83
2018-06-21T17:44:11.517Z,3.93
2018-06-21T17:46:39.546Z,6.33
2018-06-21T17:49:07.711Z,1.70
2018-06-21T17:51:35.745Z,3.13
2018-06-21T17:54:03.977Z,2.20
2018-06-21T17:56:31.995Z,5.53
2018-06-21T17:59:00.013Z,2.73
2018-06-21T18:01:28.021Z,5.70
2018-06-21T18:03:56.015Z,1.00
2018-06-21T18:06:24.115Z,4.20
2018-06-21T18:08:52.141Z,2.70
2018-06-21T18:11:20.226Z,5.03
2018-06-21T18:13:48.536Z,5.50
2018-06-21T18:16:16.524Z,2.90
2018-06-21T18:18:44.705Z,3.33
2018-06-21T18:21:12.756Z,2.67
2018-06-21T18:23:40.898Z,2.10
2018-06-21T18:26:08.928Z,5.97
2018-06-21T18:28:36.890Z,0.80
2018-06-21T18:31:04.917Z,3.57
2018-06-21T18:33:32.913Z,1.73
2018-06-21T18:36:00.896Z,2.10
2018-06-21T18:38:29.047Z,7.47
2018-06-21T18:40:57.124Z,3.40
2018-06-21T18:43:25.118Z,2.77
2018-06-21T18:45:53.084Z,1.70
2018-06-21T18:48:21.079Z,7.23
2018-06-21T18:50:49.117Z,2.53
2018-06-21T18:53:17.189Z,4.00
2018-06-21T18:55:45.445Z,6.77
2018-06-21T18:58:13.445Z,5.00
2018-06-21T19:00:41.433Z,4.65
2018-06-21T19:03:09.413Z,1.90
2018-06-21T19:05:37.420Z,2.87
2018-06-21T19:08:11.178Z,7.30
2018-06-21T19:10:44.660Z,11.80
2018-06-21T19:13:12.644Z,5.70
2018-06-21T19:15:40.713Z,2.10
2018-06-21T19:18:08.734Z,6.97
2018-06-21T19:20:36.823Z,6.80
2018-06-21T19:23:05.017Z,6.10
2018-06-21T19:25:33.078Z,4.43
2018-06-21T19:28:01.072Z,9.70
2018-06-21T19:30:29.090Z,8.53
2018-06-21T19:32:57.092Z,15.03
2018-06-21T19:35:25.089Z,8.10
2018-06-21T19:37:53.184Z,8.40
2018-06-21T19:40:21.184Z,4.43
2018-06-21T19:42:49.281Z,2.30
2018-06-21T19:45:17.301Z,12.53
2018-06-21T19:47:45.294Z,6.53
2018-06-21T19:50:13.324Z,4.27
2018-06-21T19:52:41.341Z,13.07
2018-06-21T19:55:09.314Z,5.40
2018-06-21T19:57:37.301Z,8.03
2018-06-21T20:00:05.288Z,9.10
2018-06-21T20:02:38.857Z,8.37
2018-06-21T20:05:06.879Z,4.37
2018-06-21T20:07:34.909Z,7.07
2018-06-21T20:10:02.934Z,4.47
2018-06-21T20:12:30.945Z,5.60
2018-06-21T20:14:58.936Z,8.23
2018-06-21T20:17:26.977Z,6.93
2018-06-21T20:20:00.442Z,3.80
2018-06-21T20:22:28.487Z,7.23
2018-06-21T20:24:56.743Z,4.70
2018-06-21T20:27:24.812Z,11.23
2018-06-21T20:29:53.113Z,11.23
2018-06-21T20:32:21.142Z,11.43
2018-06-21T20:34:49.213Z,9.37
2018-06-21T20:37:17.339Z,4.07
2018-06-21T20:39:46.058Z,6.93
2018-06-21T20:42:14.154Z,6.93
2018-06-21T20:44:42.147Z,7.47
2018-06-21T20:47:10.152Z,3.27
2018-06-21T20:49:38.265Z,10.00
2018-06-21T20:52:10.461Z,5.53
2018-06-21T20:54:38.478Z,4.57
2018-06-21T20:57:06.480Z,7.77
2018-06-21T20:59:34.629Z,5.60
2018-06-21T21:02:02.632Z,8.60
2018-06-21T21:04:41.172Z,3.77
2018-06-21T21:07:09.196Z,5.83
2018-06-21T21:09:37.239Z,8.20
2018-06-21T21:12:05.313Z,3.27
2018-06-21T21:14:33.356Z,7.10
2018-06-21T21:17:01.377Z,19.87
2018-06-21T21:19:29.382Z,6.67
2018-06-21T21:21:57.400Z,12.57
2018-06-21T21:24:25.395Z,9.33
2018-06-21T21:26:53.369Z,8.50
2018-06-21T21:29:21.407Z,7.07
2018-06-21T21:31:49.401Z,7.93
2018-06-21T21:34:17.489Z,13.20
2018-06-21T21:36:45.467Z,6.27
2018-06-21T21:39:13.477Z,13.20
2018-06-21T21:41:41.557Z,5.20
2018-06-21T21:44:10.174Z,8.37
2018-06-21T21:46:38.183Z,6.13
2018-06-21T21:49:06.255Z,22.13
2018-06-21T21:51:34.329Z,7.93
2018-06-21T21:54:02.374Z,17.60
2018-06-21T21:56:30.416Z,12.30
2018-06-21T21:58:58.445Z,8.97
2018-06-21T22:01:26.477Z,8.87
2018-06-21T22:03:54.850Z,13.53
2018-06-21T22:06:23.038Z,10.10
2018-06-21T22:08:51.140Z,9.63
2018-06-21T22:11:19.172Z,13.60
2018-06-21T22:13:47.213Z,14.03
2018-06-21T22:16:15.218Z,7.90
2018-06-21T22:18:43.266Z,13.57
2018-06-21T22:21:11.377Z,5.60
2018-06-21T22:23:39.416Z,9.93
2018-06-21T22:26:07.405Z,8.03
2018-06-21T22:28:35.468Z,22.70
2018-06-21T22:31:03.467Z,12.57
2018-06-21T22:33:31.448Z,18.00
2018-06-21T22:35:59.458Z,12.30
2018-06-21T22:38:27.441Z,12.30
2018-06-21T22:40:55.487Z,15.10
2018-06-21T22:43:23.549Z,11.80
2018-06-21T22:45:51.611Z,9.43
2018-06-21T22:48:19.645Z,7.43
2018-06-21T22:50:47.636Z,8.90
2018-06-21T22:53:15.633Z,8.60
2018-06-21T22:55:43.730Z,7.30
2018-06-21T22:58:11.814Z,7.10
2018-06-21T23:00:39.757Z,13.07
2018-06-21T23:03:08.184Z,9.33
2018-06-21T23:05:36.199Z,11.70
2018-06-21T23:08:04.221Z,13.90
2018-06-21T23:10:32.212Z,3.70
2018-06-21T23:13:00.276Z,5.90
2018-06-21T23:15:28.305Z,4.77
2018-06-21T23:17:56.357Z,10.13
2018-06-21T23:20:24.383Z,6.53
2018-06-21T23:22:52.392Z,12.10
2018-06-21T23:25:20.387Z,9.43
2018-06-21T23:27:48.362Z,7.70
2018-06-21T23:30:16.462Z,13.73
2018-06-21T23:32:44.489Z,2.90
2018-06-21T23:35:12.513Z,10.43
2018-06-21T23:37:40.484Z,6.33
2018-06-21T23:40:08.513Z,7.30
2018-06-21T23:42:36.742Z,5.10
2018-06-21T23:45:04.708Z,7.17
2018-06-21T23:47:32.712Z,16.80
2018-06-21T23:50:00.745Z,14.83
2018-06-21T23:52:28.752Z,7.60
2018-06-21T23:54:56.768Z,2.37
2018-06-21T23:57:25.828Z,5.60
2018-06-21T23:59:53.832Z,4.20
